createdAt,value
2018-07-26T00:01:32.471Z,546.50
2018-07-26T00:03:59.696Z,549.27
2018-07-26T00:06:26.906Z,550.43
2018-07-26T00:08:54.126Z,550.07
2018-07-26T00:11:21.329Z,557.83
2018-07-26T00:13:48.528Z,552.47
2018-07-26T00:16:15.735Z,550.90
2018-07-26T00:18:42.929Z,548.00
2018-07-26T00:21:10.134Z,547.80
2018-07-26T00:23:37.375Z,550.43
2018-07-26T00:26:04.920Z,552.60
2018-07-26T00:28:32.249Z,551.57
2018-07-26T00:30:59.432Z,553.97
2018-07-26T00:33:26.616Z,555.33
2018-07-26T00:35:54.095Z,546.63
2018-07-26T00:38:21.284Z,549.37
2018-07-26T00:40:48.485Z,547.97
2018-07-26T00:43:15.688Z,544.50
2018-07-26T00:45:42.899Z,545.77
2018-07-26T00:48:10.089Z,541.10
2018-07-26T00:50:37.293Z,543.90
2018-07-26T00:53:04.504Z,545.00
2018-07-26T00:55:31.707Z,548.97
2018-07-26T00:57:58.988Z,549.03
2018-07-26T01:00:26.195Z,550.60
2018-07-26T01:02:53.383Z,547.37
2018-07-26T01:05:20.571Z,543.90
2018-07-26T01:07:47.919Z,547.10
2018-07-26T01:10:15.153Z,545.13
2018-07-26T01:12:42.554Z,541.90
2018-07-26T01:15:09.758Z,546.73
2018-07-26T01:17:36.987Z,541.67
2018-07-26T01:20:04.728Z,542.97
2018-07-26T01:22:31.933Z,541.97
2018-07-26T01:24:59.141Z,547.67
2018-07-26T01:27:26.329Z,544.57
2018-07-26T01:29:53.547Z,544.77
2018-07-26T01:32:20.739Z,541.80
2018-07-26T01:34:47.946Z,542.70
2018-07-26T01:37:15.150Z,551.20
2018-07-26T01:39:42.335Z,545.37
2018-07-26T01:42:09.538Z,546.00
2018-07-26T01:44:36.774Z,556.23
2018-07-26T01:47:04.081Z,548.20
2018-07-26T01:49:31.283Z,543.37
2018-07-26T01:51:58.491Z,545.20
2018-07-26T01:54:25.831Z,546.57
2018-07-26T01:56:53.016Z,541.97
2018-07-26T01:59:20.234Z,547.53
2018-07-26T02:01:47.457Z,544.10
2018-07-26T02:04:14.663Z,546.50
2018-07-26T02:06:41.865Z,551.53
2018-07-26T02:09:09.959Z,551.33
2018-07-26T02:11:37.198Z,549.07
2018-07-26T02:14:04.486Z,541.57
2018-07-26T02:16:31.659Z,541.13
2018-07-26T02:18:58.855Z,539.17
2018-07-26T02:21:26.109Z,542.60
2018-07-26T02:23:53.308Z,544.90
2018-07-26T02:26:20.506Z,543.03
2018-07-26T02:28:47.716Z,537.97
2018-07-26T02:31:14.911Z,541.33
2018-07-26T02:33:42.114Z,547.70
2018-07-26T02:36:09.311Z,540.63
2018-07-26T02:38:36.526Z,547.57
2018-07-26T02:41:03.756Z,545.67
2018-07-26T02:43:30.973Z,543.73
2018-07-26T02:45:58.188Z,538.90
2018-07-26T02:48:25.426Z,548.70
2018-07-26T02:50:52.676Z,539.37
2018-07-26T02:53:19.941Z,543.13
2018-07-26T02:55:47.150Z,536.30
2018-07-26T02:58:14.359Z,538.63
2018-07-26T03:00:41.562Z,542.73
2018-07-26T03:03:08.760Z,540.43
2018-07-26T03:05:35.954Z,539.10
2018-07-26T03:08:03.189Z,537.07
2018-07-26T03:10:30.402Z,538.70
2018-07-26T03:12:57.617Z,536.53
2018-07-26T03:15:24.824Z,539.10
2018-07-26T03:17:52.036Z,541.13
2018-07-26T03:20:19.238Z,536.23
2018-07-26T03:22:46.441Z,532.57
2018-07-26T03:25:13.651Z,535.73
2018-07-26T03:27:40.847Z,538.33
2018-07-26T03:30:08.253Z,536.63
2018-07-26T03:32:35.631Z,536.17
2018-07-26T03:35:02.865Z,541.73
2018-07-26T03:37:30.063Z,535.20
2018-07-26T03:39:57.259Z,534.33
2018-07-26T03:42:24.491Z,537.80
2018-07-26T03:44:51.683Z,537.43
2018-07-26T03:47:18.903Z,534.83
2018-07-26T03:49:46.104Z,533.83
2018-07-26T03:52:13.335Z,534.80
2018-07-26T03:54:40.544Z,540.00
2018-07-26T03:57:07.752Z,538.77
2018-07-26T03:59:34.947Z,545.87
2018-07-26T04:02:02.184Z,540.00
2018-07-26T04:04:29.386Z,534.10
2018-07-26T04:06:56.567Z,541.60
2018-07-26T04:09:23.820Z,538.57
2018-07-26T04:11:51.017Z,541.23
2018-07-26T04:14:18.226Z,535.03
2018-07-26T04:16:45.420Z,532.30
2018-07-26T04:19:12.644Z,541.70
2018-07-26T04:21:40.390Z,538.83
2018-07-26T04:24:07.584Z,539.30
2018-07-26T04:26:35.343Z,534.60
2018-07-26T04:29:02.922Z,537.57
2018-07-26T04:31:30.138Z,537.57
2018-07-26T04:33:57.377Z,537.00
2018-07-26T04:36:24.611Z,535.80
2018-07-26T04:38:51.846Z,533.93
2018-07-26T04:41:19.047Z,536.53
2018-07-26T04:43:46.270Z,535.53
2018-07-26T04:46:13.527Z,531.33
2018-07-26T04:48:40.739Z,533.03
2018-07-26T04:51:07.957Z,531.60
2018-07-26T04:53:35.464Z,534.23
2018-07-26T04:56:02.669Z,532.13
2018-07-26T04:58:30.105Z,535.40
2018-07-26T05:00:57.338Z,537.63
2018-07-26T05:03:25.334Z,532.30
2018-07-26T05:05:52.534Z,541.03
2018-07-26T05:08:19.728Z,536.33
2018-07-26T05:10:46.963Z,532.27
2018-07-26T05:13:14.159Z,532.93
2018-07-26T05:15:41.407Z,533.23
2018-07-26T05:18:09.356Z,537.07
2018-07-26T05:20:36.577Z,543.73
2018-07-26T05:23:04.062Z,535.33
2018-07-26T05:25:31.298Z,540.37
2018-07-26T05:27:58.490Z,535.43
2018-07-26T05:30:25.731Z,539.00
2018-07-26T05:32:52.970Z,538.87
2018-07-26T05:35:20.301Z,539.73
2018-07-26T05:37:47.667Z,539.93
2018-07-26T05:40:15.037Z,537.83
2018-07-26T05:42:42.392Z,541.23
2018-07-26T05:45:09.606Z,543.80
2018-07-26T05:47:36.794Z,540.47
2018-07-26T05:50:04.574Z,538.57
2018-07-26T05:52:31.788Z,545.43
2018-07-26T05:54:59.024Z,542.63
2018-07-26T05:57:26.234Z,541.80
2018-07-26T05:59:53.457Z,547.43
2018-07-26T06:02:20.723Z,541.30
2018-07-26T06:04:48.117Z,541.07
2018-07-26T06:07:15.327Z,541.80
2018-07-26T06:09:42.590Z,546.07
2018-07-26T06:12:09.936Z,541.37
2018-07-26T06:14:37.162Z,547.63
2018-07-26T06:17:04.410Z,545.43
2018-07-26T06:19:31.614Z,543.13
2018-07-26T06:21:58.822Z,548.50
2018-07-26T06:24:26.041Z,542.20
2018-07-26T06:26:53.255Z,545.70
2018-07-26T06:29:20.455Z,545.23
2018-07-26T06:31:47.673Z,554.93
2018-07-26T06:34:14.872Z,548.63
2018-07-26T06:36:42.086Z,554.17
2018-07-26T06:39:10.711Z,550.70
2018-07-26T06:41:37.918Z,551.43
2018-07-26T06:44:05.204Z,555.93
2018-07-26T06:46:32.412Z,552.03
2018-07-26T06:48:59.640Z,553.23
2018-07-26T06:51:26.861Z,555.23
2018-07-26T06:53:54.073Z,549.80
2018-07-26T06:56:21.291Z,557.13
2018-07-26T06:58:48.500Z,555.47
2018-07-26T07:01:16.130Z,558.70
2018-07-26T07:03:43.329Z,565.03
2018-07-26T07:06:10.534Z,572.97
2018-07-26T07:08:37.914Z,591.93
2018-07-26T07:11:05.270Z,647.83
2018-07-26T07:13:32.456Z,667.53
2018-07-26T07:15:59.698Z,703.00
2018-07-26T07:18:26.911Z,703.27
2018-07-26T07:20:54.164Z,744.17
2018-07-26T07:23:21.455Z,749.57
2018-07-26T07:25:48.666Z,792.33
2018-07-26T07:28:15.872Z,819.30
2018-07-26T07:30:43.111Z,821.07
2018-07-26T07:33:10.306Z,797.70
2018-07-26T07:35:37.496Z,839.70
2018-07-26T07:38:04.722Z,869.67
2018-07-26T07:40:31.923Z,854.50
2018-07-26T07:42:59.139Z,849.77
2018-07-26T07:45:26.344Z,838.40
2018-07-26T07:47:53.550Z,879.37
2018-07-26T07:50:20.751Z,862.30
2018-07-26T07:52:48.016Z,863.67
2018-07-26T07:55:15.225Z,881.27
2018-07-26T07:57:42.414Z,912.53
2018-07-26T08:00:09.626Z,880.67
2018-07-26T08:02:36.995Z,881.73
2018-07-26T08:05:04.449Z,873.80
2018-07-26T08:07:31.666Z,897.53
2018-07-26T08:09:58.887Z,871.27
2018-07-26T08:12:26.107Z,900.47
2018-07-26T08:14:53.387Z,899.83
2018-07-26T08:17:20.623Z,866.30
2018-07-26T08:19:47.826Z,895.00
2018-07-26T08:22:15.023Z,921.73
2018-07-26T08:24:42.226Z,904.27
2018-07-26T08:27:09.434Z,890.83
2018-07-26T08:29:36.641Z,891.23
2018-07-26T08:32:03.858Z,892.20
2018-07-26T08:34:31.061Z,898.00
2018-07-26T08:36:58.295Z,893.30
2018-07-26T08:39:25.498Z,906.23
2018-07-26T08:41:52.719Z,925.07
2018-07-26T08:44:20.097Z,920.90
2018-07-26T08:46:47.319Z,906.23
2018-07-26T08:49:14.535Z,892.80
2018-07-26T08:51:41.756Z,886.67
2018-07-26T08:54:09.023Z,892.30
2018-07-26T08:56:36.192Z,913.77
2018-07-26T08:59:03.398Z,878.63
2018-07-26T09:01:30.606Z,917.63
2018-07-26T09:03:57.816Z,893.33
2018-07-26T09:06:25.042Z,910.67
2018-07-26T09:08:52.247Z,896.53
2018-07-26T09:11:19.448Z,891.37
2018-07-26T09:13:46.710Z,898.70
2018-07-26T09:16:13.867Z,900.83
2018-07-26T09:18:41.075Z,906.87
2018-07-26T09:21:08.294Z,900.13
2018-07-26T09:23:35.503Z,890.70
2018-07-26T09:26:02.715Z,887.47
2018-07-26T09:28:29.930Z,924.73
2018-07-26T09:30:57.152Z,896.70
2018-07-26T09:33:24.529Z,911.33
2018-07-26T09:35:51.687Z,917.93
2018-07-26T09:38:18.912Z,938.20
2018-07-26T09:40:46.134Z,910.50
2018-07-26T09:43:13.334Z,911.80
2018-07-26T09:45:40.534Z,884.47
2018-07-26T09:48:07.775Z,924.93
2018-07-26T09:50:35.007Z,933.93
2018-07-26T09:53:02.235Z,904.93
2018-07-26T09:55:29.427Z,899.47
2018-07-26T09:57:56.678Z,902.77
2018-07-26T10:00:29.711Z,926.20
2018-07-26T10:02:56.925Z,908.63
2018-07-26T10:05:24.132Z,896.60
2018-07-26T10:07:51.331Z,928.77
2018-07-26T10:10:18.538Z,898.93
2018-07-26T10:12:45.750Z,914.67
2018-07-26T10:15:12.946Z,934.83
2018-07-26T10:17:40.163Z,927.13
2018-07-26T10:20:07.407Z,932.03
2018-07-26T10:22:34.706Z,920.80
2018-07-26T10:25:01.924Z,925.10
2018-07-26T10:27:29.798Z,916.57
2018-07-26T10:29:56.998Z,919.07
2018-07-26T10:32:24.210Z,900.53
2018-07-26T10:34:51.492Z,933.80
2018-07-26T10:37:18.684Z,897.80
2018-07-26T10:39:46.022Z,938.60
2018-07-26T10:42:13.339Z,890.70
2018-07-26T10:44:40.530Z,871.87
2018-07-26T10:47:07.722Z,844.67
2018-07-26T10:49:34.966Z,854.43
2018-07-26T10:52:02.186Z,861.17
2018-07-26T10:54:29.400Z,862.33
2018-07-26T10:56:56.603Z,891.77
2018-07-26T10:59:23.807Z,893.77
2018-07-26T11:01:51.007Z,864.13
2018-07-26T11:04:18.276Z,889.83
2018-07-26T11:06:45.474Z,888.23
2018-07-26T11:09:12.704Z,879.23
2018-07-26T11:11:39.911Z,916.17
2018-07-26T11:14:07.520Z,902.43
2018-07-26T11:16:34.770Z,921.27
2018-07-26T11:19:02.011Z,887.83
2018-07-26T11:21:29.233Z,890.63
2018-07-26T11:23:56.522Z,888.13
2018-07-26T11:26:23.944Z,880.47
2018-07-26T11:28:51.174Z,889.27
2018-07-26T11:31:18.475Z,888.83
2018-07-26T11:33:45.679Z,878.57
2018-07-26T11:36:12.882Z,904.33
2018-07-26T11:38:40.075Z,891.07
2018-07-26T11:41:07.317Z,900.57
2018-07-26T11:43:34.550Z,882.57
2018-07-26T11:46:01.730Z,871.13
2018-07-26T11:48:28.940Z,885.07
2018-07-26T11:50:56.158Z,887.97
2018-07-26T11:53:23.691Z,901.75
2018-07-26T11:55:50.919Z,888.00
2018-07-26T11:58:18.130Z,903.53
2018-07-26T12:00:45.362Z,904.53
2018-07-26T12:03:12.570Z,869.17
2018-07-26T12:05:39.772Z,865.93
2018-07-26T12:08:07.275Z,889.83
2018-07-26T12:10:34.463Z,862.30
2018-07-26T12:13:01.655Z,867.90
2018-07-26T12:15:28.865Z,867.13
2018-07-26T12:17:56.075Z,851.83
2018-07-26T12:20:23.282Z,860.10
2018-07-26T12:22:50.493Z,918.90
2018-07-26T12:25:17.693Z,914.37
2018-07-26T12:27:44.961Z,912.13
2018-07-26T12:30:12.151Z,886.28
2018-07-26T12:32:39.342Z,930.50
2018-07-26T12:35:06.548Z,904.18
2018-07-26T12:37:33.779Z,902.45
2018-07-26T12:40:01.006Z,922.42
2018-07-26T12:42:28.244Z,913.80
2018-07-26T12:44:55.453Z,927.45
2018-07-26T12:47:22.854Z,922.98
2018-07-26T12:49:50.046Z,953.60
2018-07-26T12:52:19.125Z,930.00
2018-07-26T12:54:46.349Z,902.95
2018-07-26T12:57:13.642Z,903.58
2018-07-26T12:59:40.840Z,924.68
2018-07-26T13:02:08.072Z,931.93
2018-07-26T13:04:35.278Z,899.23
2018-07-26T13:07:02.525Z,926.20
2018-07-26T13:09:29.717Z,919.10
2018-07-26T13:11:56.914Z,912.60
2018-07-26T13:14:24.094Z,911.70
2018-07-26T13:16:51.289Z,903.67
2018-07-26T13:19:18.487Z,884.37
2018-07-26T13:21:45.707Z,888.25
2018-07-26T13:24:12.910Z,879.60
2018-07-26T13:26:40.126Z,886.43
2018-07-26T13:29:07.328Z,887.90
2018-07-26T13:31:34.530Z,853.50
2018-07-26T13:34:01.749Z,877.43
2018-07-26T13:36:28.984Z,896.13
2018-07-26T13:38:56.204Z,880.73
2018-07-26T13:41:23.407Z,912.57
2018-07-26T13:43:50.613Z,876.93
2018-07-26T13:46:17.863Z,851.33
2018-07-26T13:48:45.056Z,877.90
2018-07-26T13:51:12.407Z,881.70
2018-07-26T13:53:39.611Z,877.70
2018-07-26T13:56:06.858Z,876.33
2018-07-26T13:58:34.126Z,924.47
2018-07-26T14:01:01.276Z,896.77
2018-07-26T14:03:28.467Z,875.47
2018-07-26T14:05:55.675Z,874.97
2018-07-26T14:08:23.023Z,894.23
2018-07-26T14:10:50.213Z,856.00
2018-07-26T14:13:17.416Z,880.03
2018-07-26T14:15:44.715Z,906.13
2018-07-26T14:18:11.848Z,879.93
2018-07-26T14:20:39.091Z,886.63
2018-07-26T14:23:06.306Z,905.77
2018-07-26T14:25:33.523Z,865.23
2018-07-26T14:28:00.742Z,884.80
2018-07-26T14:30:27.963Z,883.07
2018-07-26T14:32:55.180Z,894.30
2018-07-26T14:35:22.403Z,872.73
2018-07-26T14:37:49.618Z,883.57
2018-07-26T14:40:16.839Z,900.00
2018-07-26T14:42:44.066Z,878.37
2018-07-26T14:45:11.292Z,892.30
2018-07-26T14:47:38.516Z,903.73
2018-07-26T14:50:05.758Z,877.30
2018-07-26T14:52:32.981Z,912.80
2018-07-26T14:55:00.167Z,890.60
2018-07-26T14:57:27.366Z,914.43
2018-07-26T14:59:54.724Z,879.20
2018-07-26T15:02:21.963Z,898.37
2018-07-26T15:04:49.166Z,871.20
2018-07-26T15:07:16.375Z,889.37
2018-07-26T15:09:43.623Z,869.30
2018-07-26T15:12:10.795Z,882.70
2018-07-26T15:14:38.010Z,839.57
2018-07-26T15:17:05.307Z,862.60
2018-07-26T15:19:32.511Z,839.63
2018-07-26T15:21:59.714Z,864.80
2018-07-26T15:24:28.000Z,841.90
2018-07-26T15:26:55.186Z,856.40
2018-07-26T15:29:22.395Z,838.87
2018-07-26T15:31:49.674Z,838.67
2018-07-26T15:34:16.862Z,840.30
2018-07-26T15:36:44.057Z,835.13
2018-07-26T15:39:11.470Z,837.17
2018-07-26T15:41:43.707Z,824.13
2018-07-26T15:44:11.726Z,844.33
2018-07-26T15:46:39.129Z,823.20
2018-07-26T15:49:06.575Z,829.20
2018-07-26T15:51:33.822Z,838.73
2018-07-26T15:54:00.995Z,847.57
2018-07-26T15:56:28.194Z,825.07
2018-07-26T15:58:55.455Z,831.20
2018-07-26T16:01:22.766Z,838.87
2018-07-26T16:03:49.959Z,826.87
2018-07-26T16:06:17.170Z,850.20
2018-07-26T16:08:44.376Z,841.50
2018-07-26T16:11:11.608Z,848.57
2018-07-26T16:13:38.847Z,845.20
2018-07-26T16:16:06.059Z,831.23
2018-07-26T16:18:33.279Z,843.07
2018-07-26T16:21:00.501Z,813.17
2018-07-26T16:23:27.965Z,831.47
2018-07-26T16:25:55.180Z,833.73
2018-07-26T16:28:22.395Z,844.23
2018-07-26T16:30:49.781Z,851.93
2018-07-26T16:33:17.079Z,807.67
2018-07-26T16:35:44.266Z,842.40
2018-07-26T16:38:11.525Z,831.53
2018-07-26T16:40:38.736Z,810.13
2018-07-26T16:43:05.954Z,814.23
2018-07-26T16:45:33.174Z,821.13
2018-07-26T16:48:00.367Z,808.10
2018-07-26T16:50:27.579Z,835.57
2018-07-26T16:52:54.843Z,814.73
2018-07-26T16:55:22.308Z,840.90
2018-07-26T16:57:49.638Z,827.97
2018-07-26T17:00:16.876Z,864.83
2018-07-26T17:02:44.088Z,822.97
2018-07-26T17:05:11.334Z,830.37
2018-07-26T17:07:38.570Z,823.03
2018-07-26T17:10:06.291Z,829.47
2018-07-26T17:12:33.601Z,813.27
2018-07-26T17:15:00.896Z,830.07
2018-07-26T17:17:28.107Z,839.00
2018-07-26T17:19:55.322Z,806.87
2018-07-26T17:22:22.527Z,830.10
2018-07-26T17:24:49.844Z,810.77
2018-07-26T17:27:17.095Z,816.90
2018-07-26T17:29:44.304Z,785.93
2018-07-26T17:32:11.564Z,813.03
2018-07-26T17:34:38.779Z,794.60
2018-07-26T17:37:05.986Z,805.13
2018-07-26T17:39:33.214Z,796.90
2018-07-26T17:42:00.423Z,765.93
2018-07-26T17:44:27.732Z,749.73
2018-07-26T17:46:55.007Z,760.03
2018-07-26T17:49:22.272Z,739.27
2018-07-26T17:51:49.491Z,740.20
2018-07-26T17:54:16.950Z,705.00
2018-07-26T17:56:44.197Z,720.80
2018-07-26T17:59:11.513Z,705.07
2018-07-26T18:01:38.748Z,686.07
2018-07-26T18:04:06.079Z,684.60
2018-07-26T18:06:33.311Z,647.67
2018-07-26T18:09:00.521Z,639.03
2018-07-26T18:11:27.746Z,643.13
2018-07-26T18:13:54.997Z,642.60
2018-07-26T18:16:22.259Z,601.23
2018-07-26T18:18:49.462Z,602.73
2018-07-26T18:21:16.701Z,595.87
2018-07-26T18:23:43.907Z,592.13
2018-07-26T18:26:11.169Z,604.60
2018-07-26T18:28:38.657Z,608.60
2018-07-26T18:31:05.905Z,604.70
2018-07-26T18:33:33.130Z,589.10
2018-07-26T18:36:00.344Z,592.57
2018-07-26T18:38:27.603Z,588.43
2018-07-26T18:40:54.760Z,591.30
2018-07-26T18:43:21.972Z,579.40
2018-07-26T18:45:49.209Z,585.60
2018-07-26T18:48:16.445Z,580.90
2018-07-26T18:50:43.667Z,580.20
2018-07-26T18:53:10.900Z,586.03
2018-07-26T18:55:38.155Z,580.07
2018-07-26T18:58:05.382Z,584.47
2018-07-26T19:00:32.604Z,577.70
2018-07-26T19:03:00.594Z,580.70
2018-07-26T19:05:27.812Z,576.50
2018-07-26T19:07:55.014Z,575.20
2018-07-26T19:10:22.218Z,581.43
2018-07-26T19:12:49.426Z,576.40
2018-07-26T19:15:16.798Z,572.93
2018-07-26T19:17:44.003Z,580.03
2018-07-26T19:20:11.540Z,575.83
2018-07-26T19:22:38.772Z,573.17
2018-07-26T19:25:06.870Z,571.87
2018-07-26T19:27:34.295Z,574.20
2018-07-26T19:30:01.526Z,571.93
2018-07-26T19:32:28.728Z,576.53
2018-07-26T19:34:56.034Z,570.57
2018-07-26T19:37:23.300Z,576.37
2018-07-26T19:39:50.563Z,575.53
2018-07-26T19:42:17.806Z,571.97
2018-07-26T19:44:45.040Z,577.47
2018-07-26T19:47:12.381Z,571.20
2018-07-26T19:49:39.581Z,568.83
2018-07-26T19:52:07.388Z,567.63
2018-07-26T19:54:34.643Z,574.07
2018-07-26T19:57:01.864Z,571.40
2018-07-26T19:59:29.067Z,567.47
2018-07-26T20:01:56.287Z,566.53
2018-07-26T20:04:23.616Z,565.00
2018-07-26T20:06:50.833Z,566.47
2018-07-26T20:09:18.078Z,565.27
2018-07-26T20:11:45.274Z,562.87
2018-07-26T20:14:12.475Z,563.00
2018-07-26T20:16:39.887Z,563.83
2018-07-26T20:19:07.175Z,560.83
2018-07-26T20:21:34.458Z,567.83
2018-07-26T20:24:01.682Z,566.37
2018-07-26T20:26:28.902Z,567.57
2018-07-26T20:28:56.099Z,565.20
2018-07-26T20:31:23.529Z,566.93
2018-07-26T20:33:50.735Z,564.90
2018-07-26T20:36:18.012Z,566.27
2018-07-26T20:38:45.359Z,565.07
2018-07-26T20:41:12.591Z,565.10
2018-07-26T20:43:39.803Z,562.37
2018-07-26T20:46:07.057Z,569.30
2018-07-26T20:48:34.321Z,564.63
2018-07-26T20:51:01.507Z,561.77
2018-07-26T20:53:28.734Z,561.37
2018-07-26T20:55:55.986Z,564.30
2018-07-26T20:58:23.192Z,562.63
2018-07-26T21:00:50.420Z,566.70
2018-07-26T21:03:17.635Z,570.13
2018-07-26T21:05:44.830Z,571.80
2018-07-26T21:08:12.047Z,558.57
2018-07-26T21:10:39.256Z,562.23
2018-07-26T21:13:06.515Z,562.30
2018-07-26T21:15:33.880Z,563.53
2018-07-26T21:18:01.094Z,564.47
2018-07-26T21:20:28.295Z,557.33
2018-07-26T21:22:55.521Z,561.90
2018-07-26T21:25:22.745Z,561.37
2018-07-26T21:27:49.939Z,558.83
2018-07-26T21:30:17.167Z,566.27
2018-07-26T21:33:07.817Z,565.47
2018-07-26T21:35:35.017Z,563.83
2018-07-26T21:38:02.221Z,559.73
2018-07-26T21:40:29.416Z,557.53
2018-07-26T21:42:56.614Z,563.70
2018-07-26T21:45:23.812Z,559.77
2018-07-26T21:47:51.026Z,558.13
2018-07-26T21:50:18.222Z,564.17
2018-07-26T21:52:45.429Z,552.63
2018-07-26T21:55:12.630Z,563.30
2018-07-26T21:57:39.828Z,553.60
2018-07-26T22:00:08.507Z,553.70
2018-07-26T22:02:35.851Z,557.87
2018-07-26T22:05:03.322Z,559.40
2018-07-26T22:07:30.528Z,554.53
2018-07-26T22:09:57.715Z,555.83
2018-07-26T22:12:25.095Z,552.67
2018-07-26T22:14:52.299Z,559.63
2018-07-26T22:17:19.508Z,557.50
2018-07-26T22:19:46.709Z,560.23
2018-07-26T22:22:13.924Z,556.77
2018-07-26T22:24:41.173Z,550.17
2018-07-26T22:27:08.380Z,554.37
2018-07-26T22:29:35.584Z,549.67
2018-07-26T22:32:02.814Z,551.03
2018-07-26T22:34:30.014Z,550.27
2018-07-26T22:36:57.234Z,556.67
2018-07-26T22:39:24.449Z,553.73
2018-07-26T22:41:51.656Z,556.17
2018-07-26T22:44:18.839Z,555.60
2018-07-26T22:46:46.023Z,549.57
2018-07-26T22:49:13.225Z,553.33
2018-07-26T22:51:40.444Z,548.67
2018-07-26T22:54:07.686Z,558.77
2018-07-26T22:56:34.927Z,548.63
2018-07-26T22:59:02.343Z,547.53
2018-07-26T23:01:29.556Z,551.80
2018-07-26T23:03:56.979Z,551.67
2018-07-26T23:06:24.184Z,553.93
2018-07-26T23:08:51.528Z,546.63
2018-07-26T23:11:18.750Z,547.27
2018-07-26T23:13:45.963Z,545.97
2018-07-26T23:16:13.176Z,551.83
2018-07-26T23:18:40.395Z,542.57
2018-07-26T23:21:07.598Z,547.73
2018-07-26T23:23:34.819Z,549.97
2018-07-26T23:26:02.008Z,550.77
2018-07-26T23:28:29.206Z,548.80
2018-07-26T23:30:56.401Z,548.73
2018-07-26T23:33:23.595Z,546.63
2018-07-26T23:35:50.813Z,543.33
2018-07-26T23:38:18.011Z,544.43
2018-07-26T23:40:45.244Z,544.40
2018-07-26T23:43:12.460Z,548.53
2018-07-26T23:45:39.824Z,546.30
2018-07-26T23:48:07.030Z,553.70
2018-07-26T23:50:34.231Z,545.20
2018-07-26T23:53:01.434Z,548.43
2018-07-26T23:55:28.632Z,547.00
2018-07-26T23:57:55.848Z,547.67
